sensor_id;sensor_type;location;lat;lon;timestamp;temperature;humidity
13074;DHT22;6603;47.066;15.396;2022-09-11T00:01:10;12.10;99.90
13074;DHT22;6603;47.066;15.396;2022-09-11T00:03:41;12.00;99.90
13074;DHT22;6603;47.066;15.396;2022-09-11T00:06:10;12.20;99.90
13074;DHT22;6603;47.066;15.396;2022-09-11T00:08:38;12.10;99.90
13074;DHT22;6603;47.066;15.396;2022-09-11T00:11:08;12.00;99.90
13074;DHT22;6603;47.066;15.396;2022-09-11T00:13:36;11.90;99.90
13074;DHT22;6603;47.066;15.396;2022-09-11T00:16:04;11.80;99.90
13074;DHT22;6603;47.066;15.396;2022-09-11T00:18:32;11.80;99.90
13074;DHT22;6603;47.066;15.396;2022-09-11T00:21:02;11.80;99.90
13074;DHT22;6603;47.066;15.396;2022-09-11T00:23:29;11.50;99.90
13074;DHT22;6603;47.066;15.396;2022-09-11T00:25:54;11.20;99.90
13074;DHT22;6603;47.066;15.396;2022-09-11T00:28:22;11.60;99.90
13074;DHT22;6603;47.066;15.396;2022-09-11T00:31:03;11.70;99.90
13074;DHT22;6603;47.066;15.396;2022-09-11T00:33:30;11.40;99.90
13074;DHT22;6603;47.066;15.396;2022-09-11T00:36:01;11.40;99.90
13074;DHT22;6603;47.066;15.396;2022-09-11T00:38:31;11.60;99.90
13074;DHT22;6603;47.066;15.396;2022-09-11T00:40:59;11.60;99.90
13074;DHT22;6603;47.066;15.396;2022-09-11T00:43:26;11.40;99.90
13074;DHT22;6603;47.066;15.396;2022-09-11T00:45:59;11.30;99.90
13074;DHT22;6603;47.066;15.396;2022-09-11T00:48:30;11.30;99.90
13074;DHT22;6603;47.066;15.396;2022-09-11T00:51:01;11.40;99.90
13074;DHT22;6603;47.066;15.396;2022-09-11T00:53:34;11.40;99.90
13074;DHT22;6603;47.066;15.396;2022-09-11T00:56:03;11.40;99.90
13074;DHT22;6603;47.066;15.396;2022-09-11T00:58:37;11.30;99.90
13074;DHT22;6603;47.066;15.396;2022-09-11T01:01:04;11.60;99.90
13074;DHT22;6603;47.066;15.396;2022-09-11T01:03:30;11.60;99.90
13074;DHT22;6603;47.066;15.396;2022-09-11T01:05:57;11.40;99.90
13074;DHT22;6603;47.066;15.396;2022-09-11T01:08:23;11.20;99.90
13074;DHT22;6603;47.066;15.396;2022-09-11T01:13:46;11.40;99.90
13074;DHT22;6603;47.066;15.396;2022-09-11T01:27:43;11.80;99.90
13074;DHT22;6603;47.066;15.396;2022-09-11T01:30:21;11.60;99.90
13074;DHT22;6603;47.066;15.396;2022-09-11T01:33:23;11.40;99.90
13074;DHT22;6603;47.066;15.396;2022-09-11T01:38:50;11.30;99.90
13074;DHT22;6603;47.066;15.396;2022-09-11T01:44:24;11.50;99.90
13074;DHT22;6603;47.066;15.396;2022-09-11T01:46:52;11.20;99.90
13074;DHT22;6603;47.066;15.396;2022-09-11T01:49:40;11.20;99.90
13074;DHT22;6603;47.066;15.396;2022-09-11T01:52:09;11.50;99.90
13074;DHT22;6603;47.066;15.396;2022-09-11T01:54:54;11.40;99.90
13074;DHT22;6603;47.066;15.396;2022-09-11T01:57:35;11.50;99.90
13074;DHT22;6603;47.066;15.396;2022-09-11T02:00:07;11.40;99.90
13074;DHT22;6603;47.066;15.396;2022-09-11T02:02:37;11.40;99.90
13074;DHT22;6603;47.066;15.396;2022-09-11T02:05:09;11.20;99.90
13074;DHT22;6603;47.066;15.396;2022-09-11T02:07:54;11.20;99.90
13074;DHT22;6603;47.066;15.396;2022-09-11T02:10:35;11.30;99.90
13074;DHT22;6603;47.066;15.396;2022-09-11T02:13:57;11.20;99.90
13074;DHT22;6603;47.066;15.396;2022-09-11T02:16:21;11.30;99.90
13074;DHT22;6603;47.066;15.396;2022-09-11T02:19:00;11.30;99.90
13074;DHT22;6603;47.066;15.396;2022-09-11T02:21:27;11.10;99.90
13074;DHT22;6603;47.066;15.396;2022-09-11T02:23:53;11.10;99.90
13074;DHT22;6603;47.066;15.396;2022-09-11T02:26:25;11.30;99.90
13074;DHT22;6603;47.066;15.396;2022-09-11T02:28:53;11.20;99.90
13074;DHT22;6603;47.066;15.396;2022-09-11T02:31:20;11.30;99.90
13074;DHT22;6603;47.066;15.396;2022-09-11T02:33:46;11.30;99.90
13074;DHT22;6603;47.066;15.396;2022-09-11T02:47:44;11.40;99.90
13074;DHT22;6603;47.066;15.396;2022-09-11T02:53:09;11.30;99.90
13074;DHT22;6603;47.066;15.396;2022-09-11T02:58:20;11.40;99.90
13074;DHT22;6603;47.066;15.396;2022-09-11T03:00:47;11.40;99.90
13074;DHT22;6603;47.066;15.396;2022-09-11T03:03:14;11.60;99.90
13074;DHT22;6603;47.066;15.396;2022-09-11T03:05:41;11.50;99.90
13074;DHT22;6603;47.066;15.396;2022-09-11T03:08:07;11.60;99.90
13074;DHT22;6603;47.066;15.396;2022-09-11T03:10:33;11.50;99.90
13074;DHT22;6603;47.066;15.396;2022-09-11T03:12:59;11.50;99.90
13074;DHT22;6603;47.066;15.396;2022-09-11T03:15:25;11.60;99.90
13074;DHT22;6603;47.066;15.396;2022-09-11T03:17:51;11.50;99.90
13074;DHT22;6603;47.066;15.396;2022-09-11T03:20:18;11.50;99.90
13074;DHT22;6603;47.066;15.396;2022-09-11T03:22:45;11.50;99.90
13074;DHT22;6603;47.066;15.396;2022-09-11T03:25:11;11.70;99.90
13074;DHT22;6603;47.066;15.396;2022-09-11T03:27:37;11.70;99.90
13074;DHT22;6603;47.066;15.396;2022-09-11T03:30:07;11.70;99.90
13074;DHT22;6603;47.066;15.396;2022-09-11T03:32:33;11.40;99.90
13074;DHT22;6603;47.066;15.396;2022-09-11T03:34:59;11.50;99.90
13074;DHT22;6603;47.066;15.396;2022-09-11T03:37:26;11.40;99.90
13074;DHT22;6603;47.066;15.396;2022-09-11T03:39:51;11.60;99.90
13074;DHT22;6603;47.066;15.396;2022-09-11T03:42:19;11.60;99.90
13074;DHT22;6603;47.066;15.396;2022-09-11T03:44:45;11.60;99.90
13074;DHT22;6603;47.066;15.396;2022-09-11T03:47:12;11.50;99.90
13074;DHT22;6603;47.066;15.396;2022-09-11T03:49:38;11.70;99.90
13074;DHT22;6603;47.066;15.396;2022-09-11T03:52:05;11.80;99.90
13074;DHT22;6603;47.066;15.396;2022-09-11T03:54:30;11.60;99.90
13074;DHT22;6603;47.066;15.396;2022-09-11T03:56:57;11.60;99.90
13074;DHT22;6603;47.066;15.396;2022-09-11T03:59:24;11.40;99.90
13074;DHT22;6603;47.066;15.396;2022-09-11T04:01:51;11.60;99.90
13074;DHT22;6603;47.066;15.396;2022-09-11T04:04:17;11.60;99.90
13074;DHT22;6603;47.066;15.396;2022-09-11T04:06:43;11.70;99.90
13074;DHT22;6603;47.066;15.396;2022-09-11T04:09:09;11.80;99.90
13074;DHT22;6603;47.066;15.396;2022-09-11T04:11:35;11.60;99.90
13074;DHT22;6603;47.066;15.396;2022-09-11T04:14:05;11.70;99.90
13074;DHT22;6603;47.066;15.396;2022-09-11T04:16:32;11.80;99.90
13074;DHT22;6603;47.066;15.396;2022-09-11T04:18:59;11.90;99.90
13074;DHT22;6603;47.066;15.396;2022-09-11T04:21:26;11.80;99.90
13074;DHT22;6603;47.066;15.396;2022-09-11T04:23:55;11.80;99.90
13074;DHT22;6603;47.066;15.396;2022-09-11T04:26:26;11.90;99.90
13074;DHT22;6603;47.066;15.396;2022-09-11T04:28:52;11.90;99.90
13074;DHT22;6603;47.066;15.396;2022-09-11T04:31:19;11.90;99.90
13074;DHT22;6603;47.066;15.396;2022-09-11T04:33:48;11.90;99.90
13074;DHT22;6603;47.066;15.396;2022-09-11T04:36:16;12.00;99.90
13074;DHT22;6603;47.066;15.396;2022-09-11T04:38:43;11.90;99.90
13074;DHT22;6603;47.066;15.396;2022-09-11T04:41:10;12.00;99.90
13074;DHT22;6603;47.066;15.396;2022-09-11T04:43:38;11.90;99.90
13074;DHT22;6603;47.066;15.396;2022-09-11T04:46:11;11.90;99.90
13074;DHT22;6603;47.066;15.396;2022-09-11T04:48:45;11.80;99.90
13074;DHT22;6603;47.066;15.396;2022-09-11T04:51:20;12.00;99.90
13074;DHT22;6603;47.066;15.396;2022-09-11T04:53:47;12.10;99.90
13074;DHT22;6603;47.066;15.396;2022-09-11T04:56:14;12.20;99.90
13074;DHT22;6603;47.066;15.396;2022-09-11T04:58:41;12.20;99.90
13074;DHT22;6603;47.066;15.396;2022-09-11T05:01:13;12.20;99.90
13074;DHT22;6603;47.066;15.396;2022-09-11T05:03:40;12.20;99.90
13074;DHT22;6603;47.066;15.396;2022-09-11T05:06:10;12.20;99.90
13074;DHT22;6603;47.066;15.396;2022-09-11T05:08:38;12.20;99.90
13074;DHT22;6603;47.066;15.396;2022-09-11T05:11:04;12.10;99.90
13074;DHT22;6603;47.066;15.396;2022-09-11T05:13:31;12.20;99.90
13074;DHT22;6603;47.066;15.396;2022-09-11T05:16:09;12.40;99.90
13074;DHT22;6603;47.066;15.396;2022-09-11T05:18:36;12.30;99.90
13074;DHT22;6603;47.066;15.396;2022-09-11T05:21:04;12.20;99.90
13074;DHT22;6603;47.066;15.396;2022-09-11T05:23:31;12.20;99.90
13074;DHT22;6603;47.066;15.396;2022-09-11T05:26:02;12.20;99.90
13074;DHT22;6603;47.066;15.396;2022-09-11T05:28:29;12.10;99.90
13074;DHT22;6603;47.066;15.396;2022-09-11T05:30:56;12.40;99.90
13074;DHT22;6603;47.066;15.396;2022-09-11T05:33:24;12.20;99.90
13074;DHT22;6603;47.066;15.396;2022-09-11T05:35:51;12.00;99.90
13074;DHT22;6603;47.066;15.396;2022-09-11T05:38:19;12.00;99.90
13074;DHT22;6603;47.066;15.396;2022-09-11T05:40:46;12.10;99.90
13074;DHT22;6603;47.066;15.396;2022-09-11T05:43:14;12.10;99.90
13074;DHT22;6603;47.066;15.396;2022-09-11T05:45:41;12.20;99.90
13074;DHT22;6603;47.066;15.396;2022-09-11T05:48:08;12.30;99.90
13074;DHT22;6603;47.066;15.396;2022-09-11T05:50:35;12.20;99.90
13074;DHT22;6603;47.066;15.396;2022-09-11T05:53:02;12.10;99.90
13074;DHT22;6603;47.066;15.396;2022-09-11T05:55:27;12.10;99.90
13074;DHT22;6603;47.066;15.396;2022-09-11T05:57:54;12.30;99.90
13074;DHT22;6603;47.066;15.396;2022-09-11T06:00:20;12.30;99.90
13074;DHT22;6603;47.066;15.396;2022-09-11T06:02:46;12.30;99.90
13074;DHT22;6603;47.066;15.396;2022-09-11T06:05:14;12.50;99.90
13074;DHT22;6603;47.066;15.396;2022-09-11T06:07:40;12.60;99.90
13074;DHT22;6603;47.066;15.396;2022-09-11T06:10:07;12.60;99.90
13074;DHT22;6603;47.066;15.396;2022-09-11T06:12:33;12.70;99.90
13074;DHT22;6603;47.066;15.396;2022-09-11T06:14:59;12.90;99.90
13074;DHT22;6603;47.066;15.396;2022-09-11T06:17:25;13.00;99.90
13074;DHT22;6603;47.066;15.396;2022-09-11T06:19:53;13.00;99.90
13074;DHT22;6603;47.066;15.396;2022-09-11T06:22:19;13.20;99.90
13074;DHT22;6603;47.066;15.396;2022-09-11T06:24:46;13.10;99.90
13074;DHT22;6603;47.066;15.396;2022-09-11T06:27:14;13.10;99.90
13074;DHT22;6603;47.066;15.396;2022-09-11T06:29:40;13.30;99.90
13074;DHT22;6603;47.066;15.396;2022-09-11T06:32:08;13.30;99.90
13074;DHT22;6603;47.066;15.396;2022-09-11T06:34:34;13.50;99.90
13074;DHT22;6603;47.066;15.396;2022-09-11T06:37:00;13.50;99.90
13074;DHT22;6603;47.066;15.396;2022-09-11T06:39:26;13.60;99.90
13074;DHT22;6603;47.066;15.396;2022-09-11T06:41:52;13.60;99.90
13074;DHT22;6603;47.066;15.396;2022-09-11T06:44:18;13.60;99.90
13074;DHT22;6603;47.066;15.396;2022-09-11T06:46:44;13.60;99.90
13074;DHT22;6603;47.066;15.396;2022-09-11T06:49:10;13.50;99.90
13074;DHT22;6603;47.066;15.396;2022-09-11T06:51:36;13.50;99.90
13074;DHT22;6603;47.066;15.396;2022-09-11T06:54:04;13.50;99.90
13074;DHT22;6603;47.066;15.396;2022-09-11T06:56:31;13.70;99.90
13074;DHT22;6603;47.066;15.396;2022-09-11T06:58:59;14.10;99.90
13074;DHT22;6603;47.066;15.396;2022-09-11T07:01:25;14.50;99.90
13074;DHT22;6603;47.066;15.396;2022-09-11T07:03:53;14.70;99.90
13074;DHT22;6603;47.066;15.396;2022-09-11T07:06:22;14.80;99.90
13074;DHT22;6603;47.066;15.396;2022-09-11T07:08:50;14.80;99.90
13074;DHT22;6603;47.066;15.396;2022-09-11T07:11:20;14.70;99.90
13074;DHT22;6603;47.066;15.396;2022-09-11T07:13:46;15.00;99.90
13074;DHT22;6603;47.066;15.396;2022-09-11T07:16:12;15.30;99.90
13074;DHT22;6603;47.066;15.396;2022-09-11T07:18:40;15.60;2.70
13074;DHT22;6603;47.066;15.396;2022-09-11T07:21:26;15.70;42.00
13074;DHT22;6603;47.066;15.396;2022-09-11T07:23:54;16.20;3.70
13074;DHT22;6603;47.066;15.396;2022-09-11T07:26:22;16.10;28.00
13074;DHT22;6603;47.066;15.396;2022-09-11T07:28:48;16.10;24.30
13074;DHT22;6603;47.066;15.396;2022-09-11T07:31:20;16.20;9.60
13074;DHT22;6603;47.066;15.396;2022-09-11T07:33:48;16.10;1.00
13074;DHT22;6603;47.066;15.396;2022-09-11T07:36:16;16.10;1.00
13074;DHT22;6603;47.066;15.396;2022-09-11T07:38:44;16.10;41.70
13074;DHT22;6603;47.066;15.396;2022-09-11T07:41:14;16.20;13.00
13074;DHT22;6603;47.066;15.396;2022-09-11T07:43:41;16.20;1.00
13074;DHT22;6603;47.066;15.396;2022-09-11T07:46:11;16.10;1.00
13074;DHT22;6603;47.066;15.396;2022-09-11T07:48:37;16.20;1.00
13074;DHT22;6603;47.066;15.396;2022-09-11T07:51:08;16.40;1.00
13074;DHT22;6603;47.066;15.396;2022-09-11T07:53:43;16.50;1.00
13074;DHT22;6603;47.066;15.396;2022-09-11T07:56:14;16.40;1.00
13074;DHT22;6603;47.066;15.396;2022-09-11T07:58:41;16.60;1.00
13074;DHT22;6603;47.066;15.396;2022-09-11T08:01:14;16.70;1.00
13074;DHT22;6603;47.066;15.396;2022-09-11T08:03:41;16.60;1.00
13074;DHT22;6603;47.066;15.396;2022-09-11T08:06:18;16.50;1.00
13074;DHT22;6603;47.066;15.396;2022-09-11T08:08:45;16.60;1.00
13074;DHT22;6603;47.066;15.396;2022-09-11T08:11:14;16.90;1.00
13074;DHT22;6603;47.066;15.396;2022-09-11T08:13:41;17.00;1.00
13074;DHT22;6603;47.066;15.396;2022-09-11T08:16:08;17.00;1.00
13074;DHT22;6603;47.066;15.396;2022-09-11T08:18:34;17.00;1.00
13074;DHT22;6603;47.066;15.396;2022-09-11T08:21:02;17.30;1.00
13074;DHT22;6603;47.066;15.396;2022-09-11T08:23:28;17.40;1.00
13074;DHT22;6603;47.066;15.396;2022-09-11T08:26:05;17.60;1.00
13074;DHT22;6603;47.066;15.396;2022-09-11T08:28:35;17.80;1.00
13074;DHT22;6603;47.066;15.396;2022-09-11T08:31:03;17.50;99.90
13074;DHT22;6603;47.066;15.396;2022-09-11T08:33:30;17.50;1.00
13074;DHT22;6603;47.066;15.396;2022-09-11T08:36:01;17.60;1.00
13074;DHT22;6603;47.066;15.396;2022-09-11T08:38:27;17.90;1.00
13074;DHT22;6603;47.066;15.396;2022-09-11T08:40:56;18.40;1.00
13074;DHT22;6603;47.066;15.396;2022-09-11T08:43:27;18.80;99.90
13074;DHT22;6603;47.066;15.396;2022-09-11T08:46:00;19.10;99.90
13074;DHT22;6603;47.066;15.396;2022-09-11T08:51:13;19.30;1.00
13074;DHT22;6603;47.066;15.396;2022-09-11T08:53:40;19.30;99.90
13074;DHT22;6603;47.066;15.396;2022-09-11T08:56:16;19.10;99.90
13074;DHT22;6603;47.066;15.396;2022-09-11T09:09:37;19.20;1.00
13074;DHT22;6603;47.066;15.396;2022-09-11T09:12:21;19.30;1.00
13074;DHT22;6603;47.066;15.396;2022-09-11T09:17:51;19.30;1.00
13074;DHT22;6603;47.066;15.396;2022-09-11T09:20:20;19.50;1.00
13074;DHT22;6603;47.066;15.396;2022-09-11T09:22:56;19.60;14.10
13074;DHT22;6603;47.066;15.396;2022-09-11T09:25:24;19.50;99.90
13074;DHT22;6603;47.066;15.396;2022-09-11T09:27:59;19.60;99.90
13074;DHT22;6603;47.066;15.396;2022-09-11T09:30:29;19.80;1.00
13074;DHT22;6603;47.066;15.396;2022-09-11T09:33:13;19.90;99.90
13074;DHT22;6603;47.066;15.396;2022-09-11T09:35:44;20.10;1.00
13074;DHT22;6603;47.066;15.396;2022-09-11T09:38:14;20.20;1.00
13074;DHT22;6603;47.066;15.396;2022-09-11T09:48:46;21.20;99.90
13074;DHT22;6603;47.066;15.396;2022-09-11T09:51:13;20.80;1.00
13074;DHT22;6603;47.066;15.396;2022-09-11T09:53:48;20.90;1.00
13074;DHT22;6603;47.066;15.396;2022-09-11T09:56:17;21.10;1.00
13074;DHT22;6603;47.066;15.396;2022-09-11T10:01:49;21.20;99.90
13074;DHT22;6603;47.066;15.396;2022-09-11T10:04:26;21.10;99.90
13074;DHT22;6603;47.066;15.396;2022-09-11T10:07:04;21.10;1.00
13074;DHT22;6603;47.066;15.396;2022-09-11T10:09:30;20.70;1.00
13074;DHT22;6603;47.066;15.396;2022-09-11T10:12:02;20.90;1.00
13074;DHT22;6603;47.066;15.396;2022-09-11T10:14:43;20.80;1.00
13074;DHT22;6603;47.066;15.396;2022-09-11T10:17:36;21.30;1.00
13074;DHT22;6603;47.066;15.396;2022-09-11T10:20:19;21.40;1.00
13074;DHT22;6603;47.066;15.396;2022-09-11T10:22:53;21.80;1.00
13074;DHT22;6603;47.066;15.396;2022-09-11T10:28:10;22.20;99.90
13074;DHT22;6603;47.066;15.396;2022-09-11T10:30:57;21.80;1.00
13074;DHT22;6603;47.066;15.396;2022-09-11T10:33:37;21.70;1.00
13074;DHT22;6603;47.066;15.396;2022-09-11T10:36:07;21.60;99.90
13074;DHT22;6603;47.066;15.396;2022-09-11T10:38:46;21.80;1.00
13074;DHT22;6603;47.066;15.396;2022-09-11T10:48:56;21.60;99.90
13074;DHT22;6603;47.066;15.396;2022-09-11T10:51:25;21.90;99.90
13074;DHT22;6603;47.066;15.396;2022-09-11T10:56:22;22.60;14.50
13074;DHT22;6603;47.066;15.396;2022-09-11T10:58:52;22.40;99.90
13074;DHT22;6603;47.066;15.396;2022-09-11T11:01:21;22.60;53.00
13074;DHT22;6603;47.066;15.396;2022-09-11T11:03:46;22.70;1.00
13074;DHT22;6603;47.066;15.396;2022-09-11T11:17:10;22.50;1.00
13074;DHT22;6603;47.066;15.396;2022-09-11T11:27:59;22.70;1.00
13074;DHT22;6603;47.066;15.396;2022-09-11T11:30:34;22.60;1.00
13074;DHT22;6603;47.066;15.396;2022-09-11T11:38:24;23.30;1.00
13074;DHT22;6603;47.066;15.396;2022-09-11T11:41:14;23.20;1.00
13074;DHT22;6603;47.066;15.396;2022-09-11T11:43:45;23.30;1.00
13074;DHT22;6603;47.066;15.396;2022-09-11T11:46:18;23.30;1.00
13074;DHT22;6603;47.066;15.396;2022-09-11T11:48:52;23.40;1.00
13074;DHT22;6603;47.066;15.396;2022-09-11T11:51:33;23.40;1.00
13074;DHT22;6603;47.066;15.396;2022-09-11T11:54:16;23.10;1.00
13074;DHT22;6603;47.066;15.396;2022-09-11T11:56:58;23.00;1.00
13074;DHT22;6603;47.066;15.396;2022-09-11T12:05:00;22.70;1.00
13074;DHT22;6603;47.066;15.396;2022-09-11T12:07:33;22.80;1.00
13074;DHT22;6603;47.066;15.396;2022-09-11T12:10:03;22.90;1.00
13074;DHT22;6603;47.066;15.396;2022-09-11T12:12:35;22.70;1.00
13074;DHT22;6603;47.066;15.396;2022-09-11T12:15:16;22.90;1.00
13074;DHT22;6603;47.066;15.396;2022-09-11T12:17:42;22.60;1.00
13074;DHT22;6603;47.066;15.396;2022-09-11T12:20:12;22.30;1.00
13074;DHT22;6603;47.066;15.396;2022-09-11T12:22:48;22.00;1.00
13074;DHT22;6603;47.066;15.396;2022-09-11T12:32:47;21.70;1.00
13074;DHT22;6603;47.066;15.396;2022-09-11T12:35:26;21.80;1.00
13074;DHT22;6603;47.066;15.396;2022-09-11T12:38:09;21.80;1.00
13074;DHT22;6603;47.066;15.396;2022-09-11T12:43:25;21.90;1.00
13074;DHT22;6603;47.066;15.396;2022-09-11T12:45:51;21.80;1.00
13074;DHT22;6603;47.066;15.396;2022-09-11T12:48:21;21.80;1.00
13074;DHT22;6603;47.066;15.396;2022-09-11T12:50:57;21.80;1.00
13074;DHT22;6603;47.066;15.396;2022-09-11T12:53:35;21.80;1.00
13074;DHT22;6603;47.066;15.396;2022-09-11T12:56:06;21.60;1.00
13074;DHT22;6603;47.066;15.396;2022-09-11T12:58:39;21.40;1.00
13074;DHT22;6603;47.066;15.396;2022-09-11T13:04:00;21.30;1.00
13074;DHT22;6603;47.066;15.396;2022-09-11T13:06:41;21.20;1.00
13074;DHT22;6603;47.066;15.396;2022-09-11T13:09:39;21.30;1.00
13074;DHT22;6603;47.066;15.396;2022-09-11T13:14:50;21.50;1.00
13074;DHT22;6603;47.066;15.396;2022-09-11T13:17:30;21.60;1.00
13074;DHT22;6603;47.066;15.396;2022-09-11T13:22:33;21.60;1.00
13074;DHT22;6603;47.066;15.396;2022-09-11T13:25:14;21.50;1.00
13074;DHT22;6603;47.066;15.396;2022-09-11T13:27:45;21.50;1.00
13074;DHT22;6603;47.066;15.396;2022-09-11T13:30:14;21.50;1.00
13074;DHT22;6603;47.066;15.396;2022-09-11T13:32:41;21.70;1.00
13074;DHT22;6603;47.066;15.396;2022-09-11T13:35:23;21.70;1.00
13074;DHT22;6603;47.066;15.396;2022-09-11T13:43:22;21.70;1.00
13074;DHT22;6603;47.066;15.396;2022-09-11T13:46:09;21.60;1.00
13074;DHT22;6603;47.066;15.396;2022-09-11T13:48:35;21.40;1.00
13074;DHT22;6603;47.066;15.396;2022-09-11T13:51:02;21.30;1.00
13074;DHT22;6603;47.066;15.396;2022-09-11T13:53:30;21.20;1.00
13074;DHT22;6603;47.066;15.396;2022-09-11T13:55:57;21.20;1.00
13074;DHT22;6603;47.066;15.396;2022-09-11T13:58:32;21.40;1.00
13074;DHT22;6603;47.066;15.396;2022-09-11T14:01:10;21.80;1.00
13074;DHT22;6603;47.066;15.396;2022-09-11T14:03:38;21.90;1.00
13074;DHT22;6603;47.066;15.396;2022-09-11T14:06:14;21.50;1.00
13074;DHT22;6603;47.066;15.396;2022-09-11T14:08:47;21.30;1.00
13074;DHT22;6603;47.066;15.396;2022-09-11T14:11:40;21.40;1.00
13074;DHT22;6603;47.066;15.396;2022-09-11T14:14:10;21.90;1.00
13074;DHT22;6603;47.066;15.396;2022-09-11T14:16:45;22.30;1.00
13074;DHT22;6603;47.066;15.396;2022-09-11T14:19:21;22.40;1.00
13074;DHT22;6603;47.066;15.396;2022-09-11T14:21:49;22.30;1.00
13074;DHT22;6603;47.066;15.396;2022-09-11T14:27:01;22.30;1.00
13074;DHT22;6603;47.066;15.396;2022-09-11T14:29:33;22.40;1.00
13074;DHT22;6603;47.066;15.396;2022-09-11T14:34:48;21.90;1.00
13074;DHT22;6603;47.066;15.396;2022-09-11T14:37:16;21.50;1.00
13074;DHT22;6603;47.066;15.396;2022-09-11T14:39:57;21.30;1.00
13074;DHT22;6603;47.066;15.396;2022-09-11T14:42:26;21.30;1.00
13074;DHT22;6603;47.066;15.396;2022-09-11T14:44:54;21.10;1.00
13074;DHT22;6603;47.066;15.396;2022-09-11T14:47:26;21.10;1.00
13074;DHT22;6603;47.066;15.396;2022-09-11T14:49:53;21.00;1.00
13074;DHT22;6603;47.066;15.396;2022-09-11T14:52:21;20.90;1.00
13074;DHT22;6603;47.066;15.396;2022-09-11T14:54:48;20.70;1.00
13074;DHT22;6603;47.066;15.396;2022-09-11T14:57:22;21.00;1.00
13074;DHT22;6603;47.066;15.396;2022-09-11T14:59:49;21.10;1.00
13074;DHT22;6603;47.066;15.396;2022-09-11T15:02:17;21.40;1.00
13074;DHT22;6603;47.066;15.396;2022-09-11T15:04:45;21.30;1.00
13074;DHT22;6603;47.066;15.396;2022-09-11T15:07:12;21.80;1.00
13074;DHT22;6603;47.066;15.396;2022-09-11T15:09:40;22.20;1.00
13074;DHT22;6603;47.066;15.396;2022-09-11T15:12:08;22.50;1.00
13074;DHT22;6603;47.066;15.396;2022-09-11T15:14:34;22.20;1.00
13074;DHT22;6603;47.066;15.396;2022-09-11T15:17:02;22.20;1.00
13074;DHT22;6603;47.066;15.396;2022-09-11T15:19:29;21.90;1.00
13074;DHT22;6603;47.066;15.396;2022-09-11T15:21:56;21.40;1.00
13074;DHT22;6603;47.066;15.396;2022-09-11T15:24:23;21.60;1.00
13074;DHT22;6603;47.066;15.396;2022-09-11T15:26:51;21.80;1.00
13074;DHT22;6603;47.066;15.396;2022-09-11T15:29:18;21.50;1.00
13074;DHT22;6603;47.066;15.396;2022-09-11T15:31:44;21.40;1.00
13074;DHT22;6603;47.066;15.396;2022-09-11T15:34:10;21.60;1.00
13074;DHT22;6603;47.066;15.396;2022-09-11T15:36:37;21.70;1.00
13074;DHT22;6603;47.066;15.396;2022-09-11T15:39:06;21.70;1.00
13074;DHT22;6603;47.066;15.396;2022-09-11T15:41:32;21.50;1.00
13074;DHT22;6603;47.066;15.396;2022-09-11T15:43:59;21.60;1.00
13074;DHT22;6603;47.066;15.396;2022-09-11T15:46:25;21.60;1.00
13074;DHT22;6603;47.066;15.396;2022-09-11T15:48:51;21.30;1.00
13074;DHT22;6603;47.066;15.396;2022-09-11T15:51:21;21.20;1.00
13074;DHT22;6603;47.066;15.396;2022-09-11T15:53:50;21.20;1.00
13074;DHT22;6603;47.066;15.396;2022-09-11T15:56:19;21.00;1.00
13074;DHT22;6603;47.066;15.396;2022-09-11T15:58:46;20.90;1.00
13074;DHT22;6603;47.066;15.396;2022-09-11T16:03:54;20.90;1.00
13074;DHT22;6603;47.066;15.396;2022-09-11T16:06:21;20.80;1.00
13074;DHT22;6603;47.066;15.396;2022-09-11T16:08:48;20.60;1.00
13074;DHT22;6603;47.066;15.396;2022-09-11T16:11:15;20.40;1.00
13074;DHT22;6603;47.066;15.396;2022-09-11T16:13:42;20.30;1.00
13074;DHT22;6603;47.066;15.396;2022-09-11T16:16:08;20.20;1.00
13074;DHT22;6603;47.066;15.396;2022-09-11T16:18:36;20.20;1.00
13074;DHT22;6603;47.066;15.396;2022-09-11T16:21:04;20.20;1.00
13074;DHT22;6603;47.066;15.396;2022-09-11T16:23:33;20.00;1.00
13074;DHT22;6603;47.066;15.396;2022-09-11T16:26:04;20.00;1.00
13074;DHT22;6603;47.066;15.396;2022-09-11T16:28:33;20.00;1.00
13074;DHT22;6603;47.066;15.396;2022-09-11T16:30:59;19.90;1.00
13074;DHT22;6603;47.066;15.396;2022-09-11T16:33:25;19.80;1.00
13074;DHT22;6603;47.066;15.396;2022-09-11T16:36:06;19.60;1.00
13074;DHT22;6603;47.066;15.396;2022-09-11T16:38:33;19.50;1.00
13074;DHT22;6603;47.066;15.396;2022-09-11T16:41:14;19.50;1.00
13074;DHT22;6603;47.066;15.396;2022-09-11T16:43:44;19.30;1.00
13074;DHT22;6603;47.066;15.396;2022-09-11T16:46:13;19.30;1.00
13074;DHT22;6603;47.066;15.396;2022-09-11T16:48:40;19.20;1.00
13074;DHT22;6603;47.066;15.396;2022-09-11T16:51:07;19.20;1.00
13074;DHT22;6603;47.066;15.396;2022-09-11T16:53:34;19.10;1.00
13074;DHT22;6603;47.066;15.396;2022-09-11T16:56:04;19.10;1.00
13074;DHT22;6603;47.066;15.396;2022-09-11T16:58:30;18.90;38.40
13074;DHT22;6603;47.066;15.396;2022-09-11T17:01:02;18.50;99.90
13074;DHT22;6603;47.066;15.396;2022-09-11T17:03:28;18.30;1.00
13074;DHT22;6603;47.066;15.396;2022-09-11T17:05:54;18.10;7.90
13074;DHT22;6603;47.066;15.396;2022-09-11T17:08:20;17.80;1.00
13074;DHT22;6603;47.066;15.396;2022-09-11T17:10:52;17.50;99.90
13074;DHT22;6603;47.066;15.396;2022-09-11T17:13:19;17.50;99.90
13074;DHT22;6603;47.066;15.396;2022-09-11T17:15:45;17.50;99.90
13074;DHT22;6603;47.066;15.396;2022-09-11T17:18:11;17.30;99.90
13074;DHT22;6603;47.066;15.396;2022-09-11T17:20:38;17.20;99.90
13074;DHT22;6603;47.066;15.396;2022-09-11T17:23:04;17.10;99.90
13074;DHT22;6603;47.066;15.396;2022-09-11T17:25:32;17.10;1.00
13074;DHT22;6603;47.066;15.396;2022-09-11T17:27:59;17.30;1.00
13074;DHT22;6603;47.066;15.396;2022-09-11T17:30:26;17.50;1.00
13074;DHT22;6603;47.066;15.396;2022-09-11T17:32:52;17.50;1.00
13074;DHT22;6603;47.066;15.396;2022-09-11T17:35:17;17.50;1.00
13074;DHT22;6603;47.066;15.396;2022-09-11T17:37:43;17.20;1.00
13074;DHT22;6603;47.066;15.396;2022-09-11T17:40:10;17.00;88.20
13074;DHT22;6603;47.066;15.396;2022-09-11T17:42:38;16.90;99.90
13074;DHT22;6603;47.066;15.396;2022-09-11T17:45:05;16.70;1.00
13074;DHT22;6603;47.066;15.396;2022-09-11T17:47:33;16.70;1.00
13074;DHT22;6603;47.066;15.396;2022-09-11T17:50:00;16.80;1.00
13074;DHT22;6603;47.066;15.396;2022-09-11T17:52:28;16.60;99.90
13074;DHT22;6603;47.066;15.396;2022-09-11T17:54:56;16.70;99.90
13074;DHT22;6603;47.066;15.396;2022-09-11T17:57:22;16.60;99.90
13074;DHT22;6603;47.066;15.396;2022-09-11T17:59:50;16.70;1.00
13074;DHT22;6603;47.066;15.396;2022-09-11T18:02:16;16.80;99.90
13074;DHT22;6603;47.066;15.396;2022-09-11T18:04:43;16.80;32.90
13074;DHT22;6603;47.066;15.396;2022-09-11T18:07:11;16.60;99.90
13074;DHT22;6603;47.066;15.396;2022-09-11T18:09:37;16.30;1.00
13074;DHT22;6603;47.066;15.396;2022-09-11T18:12:04;16.30;1.00
13074;DHT22;6603;47.066;15.396;2022-09-11T18:14:31;16.20;1.00